Wayside, Mississippi
Current Conditions -  °F | °C
As of 10:53 AM on Friday 31 Oct 2014 (Local Time) from KGLH Reporting Station
Clear Clear  
Wind Chill: 62°   Ceiling: Unl
Heat Index: 62°   Visibility: 10mi
Dew Point: 48°   Wind: 21mph
Humidity: 60%   Direction: 350°N
Pressure: 30.12"   Gusts: 24mph
Location:  33.27°N, 91.03°W
Report Text: KGLH 311553Z AUTO 35018G21KT 10SM CLR 17/09 A3012 RMK AO2 SLP205 T01670089
Loading
Personal Weather Stations






























Interactive Weather Map
Tropical Storm Tracking
New forecast layout! Learn more

10-Day Weather Forecast

Advertisements
Track Severe Weather on mobile